sensor_id;sensor_type;location;lat;lon;timestamp;temperature;humidity
21246;DHT22;10781;50.928;4.440;2023-07-02T00:00:03;18.20;99.90
21246;DHT22;10781;50.928;4.440;2023-07-02T00:02:30;18.30;99.90
21246;DHT22;10781;50.928;4.440;2023-07-02T00:04:56;18.30;99.90
21246;DHT22;10781;50.928;4.440;2023-07-02T00:07:22;18.10;99.90
21246;DHT22;10781;50.928;4.440;2023-07-02T00:09:47;18.00;99.90
21246;DHT22;10781;50.928;4.440;2023-07-02T00:12:13;18.10;99.90
21246;DHT22;10781;50.928;4.440;2023-07-02T00:14:39;18.10;99.90
21246;DHT22;10781;50.928;4.440;2023-07-02T00:17:05;18.00;99.90
21246;DHT22;10781;50.928;4.440;2023-07-02T00:19:31;18.10;99.90
21246;DHT22;10781;50.928;4.440;2023-07-02T00:21:56;18.10;99.90
21246;DHT22;10781;50.928;4.440;2023-07-02T00:24:23;18.10;99.90
21246;DHT22;10781;50.928;4.440;2023-07-02T00:26:49;17.90;99.90
21246;DHT22;10781;50.928;4.440;2023-07-02T00:29:14;18.00;99.90
21246;DHT22;10781;50.928;4.440;2023-07-02T00:31:40;17.90;99.90
21246;DHT22;10781;50.928;4.440;2023-07-02T00:34:06;17.80;99.90
21246;DHT22;10781;50.928;4.440;2023-07-02T00:36:32;17.80;99.90
21246;DHT22;10781;50.928;4.440;2023-07-02T00:38:58;17.80;99.90
21246;DHT22;10781;50.928;4.440;2023-07-02T00:41:24;17.90;99.90
21246;DHT22;10781;50.928;4.440;2023-07-02T00:43:50;18.00;99.90
21246;DHT22;10781;50.928;4.440;2023-07-02T00:46:21;18.10;99.90
21246;DHT22;10781;50.928;4.440;2023-07-02T00:48:47;18.00;99.90
21246;DHT22;10781;50.928;4.440;2023-07-02T00:51:18;18.00;99.90
21246;DHT22;10781;50.928;4.440;2023-07-02T00:53:45;17.80;99.90
21246;DHT22;10781;50.928;4.440;2023-07-02T00:56:12;17.80;99.90
21246;DHT22;10781;50.928;4.440;2023-07-02T00:58:44;18.00;99.90
21246;DHT22;10781;50.928;4.440;2023-07-02T01:01:13;17.90;99.90
21246;DHT22;10781;50.928;4.440;2023-07-02T01:03:49;17.90;99.90
21246;DHT22;10781;50.928;4.440;2023-07-02T01:06:17;18.00;99.90
21246;DHT22;10781;50.928;4.440;2023-07-02T01:08:45;18.00;99.90
21246;DHT22;10781;50.928;4.440;2023-07-02T01:11:11;18.00;99.90
21246;DHT22;10781;50.928;4.440;2023-07-02T01:13:36;18.00;99.90
21246;DHT22;10781;50.928;4.440;2023-07-02T01:16:02;17.90;99.90
21246;DHT22;10781;50.928;4.440;2023-07-02T01:18:29;17.70;99.90
21246;DHT22;10781;50.928;4.440;2023-07-02T01:20:55;17.80;99.90
21246;DHT22;10781;50.928;4.440;2023-07-02T01:23:21;17.90;99.90
21246;DHT22;10781;50.928;4.440;2023-07-02T01:25:47;17.90;99.90
21246;DHT22;10781;50.928;4.440;2023-07-02T01:28:13;18.00;99.90
21246;DHT22;10781;50.928;4.440;2023-07-02T01:30:39;18.00;99.90
21246;DHT22;10781;50.928;4.440;2023-07-02T01:33:04;17.90;99.90
21246;DHT22;10781;50.928;4.440;2023-07-02T01:35:30;18.00;99.90
21246;DHT22;10781;50.928;4.440;2023-07-02T01:37:56;18.10;99.90
21246;DHT22;10781;50.928;4.440;2023-07-02T01:40:22;17.90;99.90
21246;DHT22;10781;50.928;4.440;2023-07-02T01:42:48;17.90;99.90
21246;DHT22;10781;50.928;4.440;2023-07-02T01:45:13;17.80;99.90
21246;DHT22;10781;50.928;4.440;2023-07-02T01:47:39;18.00;99.90
21246;DHT22;10781;50.928;4.440;2023-07-02T01:50:05;18.00;99.90
21246;DHT22;10781;50.928;4.440;2023-07-02T01:52:31;18.00;99.90
21246;DHT22;10781;50.928;4.440;2023-07-02T01:54:59;18.10;99.90
21246;DHT22;10781;50.928;4.440;2023-07-02T01:57:25;18.00;99.90
21246;DHT22;10781;50.928;4.440;2023-07-02T01:59:50;18.00;99.90
21246;DHT22;10781;50.928;4.440;2023-07-02T02:02:16;18.00;99.90
21246;DHT22;10781;50.928;4.440;2023-07-02T02:04:41;18.00;99.90
21246;DHT22;10781;50.928;4.440;2023-07-02T02:07:07;18.00;99.90
21246;DHT22;10781;50.928;4.440;2023-07-02T02:09:33;18.00;99.90
21246;DHT22;10781;50.928;4.440;2023-07-02T02:11:58;18.10;99.90
21246;DHT22;10781;50.928;4.440;2023-07-02T02:14:24;18.10;99.90
21246;DHT22;10781;50.928;4.440;2023-07-02T02:16:50;18.20;99.90
21246;DHT22;10781;50.928;4.440;2023-07-02T02:19:16;18.10;99.90
21246;DHT22;10781;50.928;4.440;2023-07-02T02:21:42;17.90;99.90
21246;DHT22;10781;50.928;4.440;2023-07-02T02:24:08;17.90;99.90
21246;DHT22;10781;50.928;4.440;2023-07-02T02:26:34;18.00;99.90
21246;DHT22;10781;50.928;4.440;2023-07-02T02:29:00;18.00;99.90
21246;DHT22;10781;50.928;4.440;2023-07-02T02:31:26;18.10;99.90
21246;DHT22;10781;50.928;4.440;2023-07-02T02:33:51;18.20;99.90
21246;DHT22;10781;50.928;4.440;2023-07-02T02:36:17;18.20;99.90
21246;DHT22;10781;50.928;4.440;2023-07-02T02:38:43;18.00;99.90
21246;DHT22;10781;50.928;4.440;2023-07-02T02:41:08;18.10;99.90
21246;DHT22;10781;50.928;4.440;2023-07-02T02:43:34;18.30;99.90
21246;DHT22;10781;50.928;4.440;2023-07-02T02:46:00;18.10;99.90
21246;DHT22;10781;50.928;4.440;2023-07-02T02:48:26;18.00;99.90
21246;DHT22;10781;50.928;4.440;2023-07-02T02:50:51;18.00;99.90
21246;DHT22;10781;50.928;4.440;2023-07-02T02:53:17;18.10;99.90
21246;DHT22;10781;50.928;4.440;2023-07-02T02:55:42;18.10;99.90
21246;DHT22;10781;50.928;4.440;2023-07-02T02:58:08;17.90;99.90
21246;DHT22;10781;50.928;4.440;2023-07-02T03:00:34;17.90;99.90
21246;DHT22;10781;50.928;4.440;2023-07-02T03:03:00;17.90;99.90
21246;DHT22;10781;50.928;4.440;2023-07-02T03:05:25;17.90;99.90
21246;DHT22;10781;50.928;4.440;2023-07-02T03:07:51;17.90;99.90
21246;DHT22;10781;50.928;4.440;2023-07-02T03:10:17;18.10;99.90
21246;DHT22;10781;50.928;4.440;2023-07-02T03:12:43;17.90;99.90
21246;DHT22;10781;50.928;4.440;2023-07-02T03:15:09;18.00;99.90
21246;DHT22;10781;50.928;4.440;2023-07-02T03:17:35;18.00;99.90
21246;DHT22;10781;50.928;4.440;2023-07-02T03:20:01;17.80;99.90
21246;DHT22;10781;50.928;4.440;2023-07-02T03:22:29;17.80;99.90
21246;DHT22;10781;50.928;4.440;2023-07-02T03:24:55;17.80;99.90
21246;DHT22;10781;50.928;4.440;2023-07-02T03:27:21;17.90;99.90
21246;DHT22;10781;50.928;4.440;2023-07-02T03:29:46;18.00;99.90
21246;DHT22;10781;50.928;4.440;2023-07-02T03:32:13;18.10;99.90
21246;DHT22;10781;50.928;4.440;2023-07-02T03:34:39;18.10;99.90
21246;DHT22;10781;50.928;4.440;2023-07-02T03:37:04;18.00;99.90
21246;DHT22;10781;50.928;4.440;2023-07-02T03:39:30;17.70;99.90
21246;DHT22;10781;50.928;4.440;2023-07-02T03:41:56;17.60;99.90
21246;DHT22;10781;50.928;4.440;2023-07-02T03:44:21;17.70;99.90
21246;DHT22;10781;50.928;4.440;2023-07-02T03:46:47;17.80;99.90
21246;DHT22;10781;50.928;4.440;2023-07-02T03:49:13;17.60;99.90
21246;DHT22;10781;50.928;4.440;2023-07-02T03:51:38;17.60;99.90
21246;DHT22;10781;50.928;4.440;2023-07-02T03:54:04;17.60;99.90
21246;DHT22;10781;50.928;4.440;2023-07-02T03:56:30;17.70;99.90
21246;DHT22;10781;50.928;4.440;2023-07-02T03:58:55;17.60;99.90
21246;DHT22;10781;50.928;4.440;2023-07-02T04:01:21;17.70;99.90
21246;DHT22;10781;50.928;4.440;2023-07-02T04:03:51;17.50;99.90
21246;DHT22;10781;50.928;4.440;2023-07-02T04:06:18;17.50;99.90
21246;DHT22;10781;50.928;4.440;2023-07-02T04:08:44;17.60;99.90
21246;DHT22;10781;50.928;4.440;2023-07-02T04:11:10;17.50;99.90
21246;DHT22;10781;50.928;4.440;2023-07-02T04:13:36;17.40;99.90
21246;DHT22;10781;50.928;4.440;2023-07-02T04:16:02;17.60;99.90
21246;DHT22;10781;50.928;4.440;2023-07-02T04:18:28;17.50;99.90
21246;DHT22;10781;50.928;4.440;2023-07-02T04:20:55;17.50;99.90
21246;DHT22;10781;50.928;4.440;2023-07-02T04:23:20;17.50;99.90
21246;DHT22;10781;50.928;4.440;2023-07-02T04:25:46;17.50;99.90
21246;DHT22;10781;50.928;4.440;2023-07-02T04:28:12;17.50;99.90
21246;DHT22;10781;50.928;4.440;2023-07-02T04:30:37;17.60;99.90
21246;DHT22;10781;50.928;4.440;2023-07-02T04:33:03;17.50;99.90
21246;DHT22;10781;50.928;4.440;2023-07-02T04:35:31;17.60;99.90
21246;DHT22;10781;50.928;4.440;2023-07-02T04:37:57;17.70;99.90
21246;DHT22;10781;50.928;4.440;2023-07-02T04:40:23;17.70;99.90
21246;DHT22;10781;50.928;4.440;2023-07-02T04:42:48;17.70;99.90
21246;DHT22;10781;50.928;4.440;2023-07-02T04:45:14;17.60;99.90
21246;DHT22;10781;50.928;4.440;2023-07-02T04:47:45;17.50;99.90
21246;DHT22;10781;50.928;4.440;2023-07-02T04:50:11;17.50;99.90
21246;DHT22;10781;50.928;4.440;2023-07-02T04:52:39;17.60;99.90
21246;DHT22;10781;50.928;4.440;2023-07-02T04:55:06;17.50;99.90
21246;DHT22;10781;50.928;4.440;2023-07-02T04:57:32;17.40;99.90
21246;DHT22;10781;50.928;4.440;2023-07-02T04:59:57;17.60;99.90
21246;DHT22;10781;50.928;4.440;2023-07-02T05:02:23;17.50;99.90
21246;DHT22;10781;50.928;4.440;2023-07-02T05:04:49;17.60;99.90
21246;DHT22;10781;50.928;4.440;2023-07-02T05:07:16;17.50;99.90
21246;DHT22;10781;50.928;4.440;2023-07-02T05:09:41;17.40;99.90
21246;DHT22;10781;50.928;4.440;2023-07-02T05:12:08;17.60;99.90
21246;DHT22;10781;50.928;4.440;2023-07-02T05:14:33;17.40;99.90
21246;DHT22;10781;50.928;4.440;2023-07-02T05:16:59;17.50;99.90
21246;DHT22;10781;50.928;4.440;2023-07-02T05:19:25;17.40;99.90
21246;DHT22;10781;50.928;4.440;2023-07-02T05:21:50;17.50;99.90
21246;DHT22;10781;50.928;4.440;2023-07-02T05:24:16;17.50;99.90
21246;DHT22;10781;50.928;4.440;2023-07-02T05:26:41;17.60;99.90
21246;DHT22;10781;50.928;4.440;2023-07-02T05:29:07;17.60;99.90
21246;DHT22;10781;50.928;4.440;2023-07-02T05:31:33;17.60;99.90
21246;DHT22;10781;50.928;4.440;2023-07-02T05:33:59;17.80;99.90
21246;DHT22;10781;50.928;4.440;2023-07-02T05:36:25;17.80;99.90
21246;DHT22;10781;50.928;4.440;2023-07-02T05:38:51;18.00;99.90
21246;DHT22;10781;50.928;4.440;2023-07-02T05:41:22;18.10;99.90
21246;DHT22;10781;50.928;4.440;2023-07-02T05:43:48;17.90;99.90
21246;DHT22;10781;50.928;4.440;2023-07-02T05:46:14;17.90;99.90
21246;DHT22;10781;50.928;4.440;2023-07-02T05:48:43;18.00;99.90
21246;DHT22;10781;50.928;4.440;2023-07-02T05:51:09;18.20;99.90
21246;DHT22;10781;50.928;4.440;2023-07-02T05:53:36;18.30;99.90
21246;DHT22;10781;50.928;4.440;2023-07-02T05:56:02;18.50;99.90
21246;DHT22;10781;50.928;4.440;2023-07-02T05:58:28;18.60;99.90
21246;DHT22;10781;50.928;4.440;2023-07-02T06:00:55;18.70;99.90
21246;DHT22;10781;50.928;4.440;2023-07-02T06:03:21;18.80;99.90
21246;DHT22;10781;50.928;4.440;2023-07-02T06:05:50;18.70;99.90
21246;DHT22;10781;50.928;4.440;2023-07-02T06:08:16;18.80;99.90
21246;DHT22;10781;50.928;4.440;2023-07-02T06:10:43;18.80;99.90
21246;DHT22;10781;50.928;4.440;2023-07-02T06:13:09;18.70;99.90
21246;DHT22;10781;50.928;4.440;2023-07-02T06:15:35;18.60;99.90
21246;DHT22;10781;50.928;4.440;2023-07-02T06:18:01;18.70;99.90
21246;DHT22;10781;50.928;4.440;2023-07-02T06:20:26;19.00;99.90
21246;DHT22;10781;50.928;4.440;2023-07-02T06:22:52;19.10;99.90
21246;DHT22;10781;50.928;4.440;2023-07-02T06:25:18;19.10;99.90
21246;DHT22;10781;50.928;4.440;2023-07-02T06:27:43;19.20;99.90
21246;DHT22;10781;50.928;4.440;2023-07-02T06:30:09;19.10;99.90
21246;DHT22;10781;50.928;4.440;2023-07-02T06:32:35;18.90;99.90
21246;DHT22;10781;50.928;4.440;2023-07-02T06:35:00;19.20;99.90
21246;DHT22;10781;50.928;4.440;2023-07-02T06:37:26;19.40;99.90
21246;DHT22;10781;50.928;4.440;2023-07-02T06:39:52;19.50;99.90
21246;DHT22;10781;50.928;4.440;2023-07-02T06:42:17;19.60;99.90
21246;DHT22;10781;50.928;4.440;2023-07-02T06:44:43;19.70;99.90
21246;DHT22;10781;50.928;4.440;2023-07-02T06:47:09;19.90;99.90
21246;DHT22;10781;50.928;4.440;2023-07-02T06:49:35;19.80;99.90
21246;DHT22;10781;50.928;4.440;2023-07-02T06:52:01;19.90;99.90
21246;DHT22;10781;50.928;4.440;2023-07-02T06:54:26;19.90;99.90
21246;DHT22;10781;50.928;4.440;2023-07-02T06:56:52;20.20;99.90
21246;DHT22;10781;50.928;4.440;2023-07-02T06:59:22;20.40;99.90
21246;DHT22;10781;50.928;4.440;2023-07-02T07:01:48;20.80;99.90
21246;DHT22;10781;50.928;4.440;2023-07-02T07:04:14;21.10;99.90
21246;DHT22;10781;50.928;4.440;2023-07-02T07:06:41;21.10;99.90
21246;DHT22;10781;50.928;4.440;2023-07-02T07:09:06;20.70;99.90
21246;DHT22;10781;50.928;4.440;2023-07-02T07:11:32;20.80;99.90
21246;DHT22;10781;50.928;4.440;2023-07-02T07:13:57;21.00;99.90
21246;DHT22;10781;50.928;4.440;2023-07-02T07:16:23;21.10;99.90
21246;DHT22;10781;50.928;4.440;2023-07-02T07:18:49;21.10;99.90
21246;DHT22;10781;50.928;4.440;2023-07-02T07:21:14;21.20;99.90
21246;DHT22;10781;50.928;4.440;2023-07-02T07:23:40;21.20;99.90
21246;DHT22;10781;50.928;4.440;2023-07-02T07:26:06;21.10;99.90
21246;DHT22;10781;50.928;4.440;2023-07-02T07:28:32;21.30;99.90
21246;DHT22;10781;50.928;4.440;2023-07-02T07:30:57;21.10;99.90
21246;DHT22;10781;50.928;4.440;2023-07-02T07:33:23;21.00;99.90
21246;DHT22;10781;50.928;4.440;2023-07-02T07:35:49;21.40;99.90
21246;DHT22;10781;50.928;4.440;2023-07-02T07:38:14;21.60;99.90
21246;DHT22;10781;50.928;4.440;2023-07-02T07:40:42;21.60;99.90
21246;DHT22;10781;50.928;4.440;2023-07-02T07:43:07;21.30;99.90
21246;DHT22;10781;50.928;4.440;2023-07-02T07:45:33;21.40;99.90
21246;DHT22;10781;50.928;4.440;2023-07-02T07:47:59;21.50;99.90
21246;DHT22;10781;50.928;4.440;2023-07-02T07:50:25;21.60;99.90
21246;DHT22;10781;50.928;4.440;2023-07-02T07:52:51;21.90;99.90
21246;DHT22;10781;50.928;4.440;2023-07-02T07:55:17;22.20;99.90
21246;DHT22;10781;50.928;4.440;2023-07-02T07:57:43;22.60;99.90
21246;DHT22;10781;50.928;4.440;2023-07-02T08:00:09;22.40;99.90
21246;DHT22;10781;50.928;4.440;2023-07-02T08:02:35;22.40;99.90
21246;DHT22;10781;50.928;4.440;2023-07-02T08:05:01;22.70;99.90
21246;DHT22;10781;50.928;4.440;2023-07-02T08:07:28;23.20;99.90
21246;DHT22;10781;50.928;4.440;2023-07-02T08:09:53;23.70;99.90
21246;DHT22;10781;50.928;4.440;2023-07-02T08:12:19;23.90;99.90
21246;DHT22;10781;50.928;4.440;2023-07-02T08:14:44;24.20;99.90
21246;DHT22;10781;50.928;4.440;2023-07-02T08:17:10;24.20;99.90
21246;DHT22;10781;50.928;4.440;2023-07-02T08:19:36;24.20;99.90
21246;DHT22;10781;50.928;4.440;2023-07-02T08:22:01;24.40;99.90
21246;DHT22;10781;50.928;4.440;2023-07-02T08:24:28;24.50;99.90
21246;DHT22;10781;50.928;4.440;2023-07-02T08:26:56;24.50;99.90
21246;DHT22;10781;50.928;4.440;2023-07-02T08:29:21;24.50;99.90
21246;DHT22;10781;50.928;4.440;2023-07-02T08:31:47;25.10;99.90
21246;DHT22;10781;50.928;4.440;2023-07-02T08:34:13;26.20;99.90
21246;DHT22;10781;50.928;4.440;2023-07-02T08:36:38;27.10;99.90
21246;DHT22;10781;50.928;4.440;2023-07-02T08:39:04;27.70;99.80
21246;DHT22;10781;50.928;4.440;2023-07-02T08:41:30;27.60;99.70
21246;DHT22;10781;50.928;4.440;2023-07-02T08:44:06;27.50;99.90
21246;DHT22;10781;50.928;4.440;2023-07-02T08:46:32;27.30;99.00
21246;DHT22;10781;50.928;4.440;2023-07-02T08:48:58;26.60;99.80
21246;DHT22;10781;50.928;4.440;2023-07-02T08:51:23;26.60;99.90
21246;DHT22;10781;50.928;4.440;2023-07-02T08:53:49;26.80;99.90
21246;DHT22;10781;50.928;4.440;2023-07-02T08:56:15;26.70;99.90
21246;DHT22;10781;50.928;4.440;2023-07-02T08:58:40;26.10;99.90
21246;DHT22;10781;50.928;4.440;2023-07-02T09:01:14;25.90;99.90
21246;DHT22;10781;50.928;4.440;2023-07-02T09:03:40;25.30;99.90
21246;DHT22;10781;50.928;4.440;2023-07-02T09:06:07;25.00;99.90
21246;DHT22;10781;50.928;4.440;2023-07-02T09:08:33;24.40;99.90
21246;DHT22;10781;50.928;4.440;2023-07-02T09:11:13;24.20;99.90
21246;DHT22;10781;50.928;4.440;2023-07-02T09:13:49;23.80;99.90
21246;DHT22;10781;50.928;4.440;2023-07-02T09:16:28;23.60;99.90
21246;DHT22;10781;50.928;4.440;2023-07-02T09:24:23;23.80;99.90
21246;DHT22;10781;50.928;4.440;2023-07-02T09:26:50;22.90;99.90
21246;DHT22;10781;50.928;4.440;2023-07-02T09:31:51;23.40;99.90
21246;DHT22;10781;50.928;4.440;2023-07-02T09:34:17;25.40;99.90
21246;DHT22;10781;50.928;4.440;2023-07-02T09:36:43;26.30;99.90
21246;DHT22;10781;50.928;4.440;2023-07-02T09:39:12;28.00;99.90
21246;DHT22;10781;50.928;4.440;2023-07-02T09:41:40;28.70;99.90
21246;DHT22;10781;50.928;4.440;2023-07-02T09:44:08;28.20;97.60
21246;DHT22;10781;50.928;4.440;2023-07-02T09:46:37;27.50;99.10
21246;DHT22;10781;50.928;4.440;2023-07-02T09:49:10;26.70;98.60
21246;DHT22;10781;50.928;4.440;2023-07-02T09:51:38;26.20;99.30
21246;DHT22;10781;50.928;4.440;2023-07-02T09:54:04;25.20;99.00
21246;DHT22;10781;50.928;4.440;2023-07-02T09:56:30;24.10;99.90
21246;DHT22;10781;50.928;4.440;2023-07-02T09:58:56;23.20;99.90
21246;DHT22;10781;50.928;4.440;2023-07-02T10:01:22;22.60;99.90
21246;DHT22;10781;50.928;4.440;2023-07-02T10:03:48;22.50;99.90
21246;DHT22;10781;50.928;4.440;2023-07-02T10:06:13;22.50;99.90
21246;DHT22;10781;50.928;4.440;2023-07-02T10:08:39;22.60;99.90
21246;DHT22;10781;50.928;4.440;2023-07-02T10:11:08;22.70;99.90
21246;DHT22;10781;50.928;4.440;2023-07-02T10:13:34;23.00;99.90
21246;DHT22;10781;50.928;4.440;2023-07-02T10:16:04;23.70;99.90
21246;DHT22;10781;50.928;4.440;2023-07-02T10:18:30;25.60;99.90
21246;DHT22;10781;50.928;4.440;2023-07-02T10:20:55;27.20;99.90
21246;DHT22;10781;50.928;4.440;2023-07-02T10:23:35;27.40;98.70
21246;DHT22;10781;50.928;4.440;2023-07-02T10:28:40;25.80;98.30
21246;DHT22;10781;50.928;4.440;2023-07-02T10:31:18;25.20;99.10
21246;DHT22;10781;50.928;4.440;2023-07-02T10:33:44;24.50;99.30
21246;DHT22;10781;50.928;4.440;2023-07-02T10:36:18;23.80;99.90
21246;DHT22;10781;50.928;4.440;2023-07-02T10:38:45;23.60;99.90
21246;DHT22;10781;50.928;4.440;2023-07-02T10:41:10;23.20;99.90
21246;DHT22;10781;50.928;4.440;2023-07-02T10:43:36;23.90;99.90
21246;DHT22;10781;50.928;4.440;2023-07-02T10:46:01;25.40;99.90
21246;DHT22;10781;50.928;4.440;2023-07-02T10:48:30;27.00;97.80
21246;DHT22;10781;50.928;4.440;2023-07-02T10:50:56;28.20;94.90
21246;DHT22;10781;50.928;4.440;2023-07-02T10:53:22;27.40;93.80
21246;DHT22;10781;50.928;4.440;2023-07-02T10:55:55;26.80;93.60
21246;DHT22;10781;50.928;4.440;2023-07-02T10:58:21;26.10;94.20
21246;DHT22;10781;50.928;4.440;2023-07-02T11:00:48;25.80;95.00
21246;DHT22;10781;50.928;4.440;2023-07-02T11:03:18;26.70;95.70
21246;DHT22;10781;50.928;4.440;2023-07-02T11:05:45;28.00;93.40
21246;DHT22;10781;50.928;4.440;2023-07-02T11:08:11;27.80;92.00
21246;DHT22;10781;50.928;4.440;2023-07-02T11:10:37;27.70;92.40
21246;DHT22;10781;50.928;4.440;2023-07-02T11:13:19;27.10;92.10
21246;DHT22;10781;50.928;4.440;2023-07-02T11:15:46;26.50;92.40
21246;DHT22;10781;50.928;4.440;2023-07-02T11:18:13;26.10;92.90
21246;DHT22;10781;50.928;4.440;2023-07-02T11:20:41;25.50;93.90
21246;DHT22;10781;50.928;4.440;2023-07-02T11:23:24;25.50;94.70
21246;DHT22;10781;50.928;4.440;2023-07-02T11:26:00;25.60;95.00
21246;DHT22;10781;50.928;4.440;2023-07-02T11:28:27;25.80;94.70
21246;DHT22;10781;50.928;4.440;2023-07-02T11:30:53;25.50;93.70
21246;DHT22;10781;50.928;4.440;2023-07-02T11:33:20;25.30;94.30
21246;DHT22;10781;50.928;4.440;2023-07-02T11:35:46;24.90;94.50
21246;DHT22;10781;50.928;4.440;2023-07-02T11:38:12;25.00;94.00
21246;DHT22;10781;50.928;4.440;2023-07-02T11:40:38;25.90;94.20
21246;DHT22;10781;50.928;4.440;2023-07-02T11:43:04;27.90;92.10
21246;DHT22;10781;50.928;4.440;2023-07-02T11:45:31;28.10;90.30
21246;DHT22;10781;50.928;4.440;2023-07-02T11:47:57;27.30;91.20
21246;DHT22;10781;50.928;4.440;2023-07-02T11:50:23;26.50;90.70
21246;DHT22;10781;50.928;4.440;2023-07-02T11:52:48;26.50;92.90
21246;DHT22;10781;50.928;4.440;2023-07-02T11:55:14;27.50;91.10
21246;DHT22;10781;50.928;4.440;2023-07-02T11:57:39;27.90;88.90
21246;DHT22;10781;50.928;4.440;2023-07-02T12:00:05;27.70;90.40
21246;DHT22;10781;50.928;4.440;2023-07-02T12:02:31;27.10;90.00
21246;DHT22;10781;50.928;4.440;2023-07-02T12:04:57;26.80;90.00
21246;DHT22;10781;50.928;4.440;2023-07-02T12:07:23;26.50;91.70
21246;DHT22;10781;50.928;4.440;2023-07-02T12:09:48;26.60;91.40
21246;DHT22;10781;50.928;4.440;2023-07-02T12:12:14;28.10;92.10
21246;DHT22;10781;50.928;4.440;2023-07-02T12:14:41;30.00;88.50
21246;DHT22;10781;50.928;4.440;2023-07-02T12:17:09;30.70;84.20
21246;DHT22;10781;50.928;4.440;2023-07-02T12:19:40;31.80;80.40
21246;DHT22;10781;50.928;4.440;2023-07-02T12:22:06;31.00;76.90
21246;DHT22;10781;50.928;4.440;2023-07-02T12:24:32;29.50;78.60
21246;DHT22;10781;50.928;4.440;2023-07-02T12:26:58;28.30;79.70
21246;DHT22;10781;50.928;4.440;2023-07-02T12:29:24;29.00;82.80
21246;DHT22;10781;50.928;4.440;2023-07-02T12:31:49;30.10;78.50
21246;DHT22;10781;50.928;4.440;2023-07-02T12:34:15;31.20;77.20
21246;DHT22;10781;50.928;4.440;2023-07-02T12:36:41;31.50;72.50
21246;DHT22;10781;50.928;4.440;2023-07-02T12:39:06;32.60;73.20
21246;DHT22;10781;50.928;4.440;2023-07-02T12:41:33;34.10;68.10
21246;DHT22;10781;50.928;4.440;2023-07-02T12:43:59;34.80;66.30
21246;DHT22;10781;50.928;4.440;2023-07-02T12:46:25;34.20;63.70
21246;DHT22;10781;50.928;4.440;2023-07-02T12:48:50;34.60;61.40
21246;DHT22;10781;50.928;4.440;2023-07-02T12:51:16;33.90;61.00
21246;DHT22;10781;50.928;4.440;2023-07-02T12:53:42;32.90;61.20
21246;DHT22;10781;50.928;4.440;2023-07-02T12:56:07;32.70;63.70
21246;DHT22;10781;50.928;4.440;2023-07-02T12:58:33;33.40;62.40
21246;DHT22;10781;50.928;4.440;2023-07-02T13:00:59;34.50;61.30
21246;DHT22;10781;50.928;4.440;2023-07-02T13:03:25;34.60;57.90
21246;DHT22;10781;50.928;4.440;2023-07-02T13:05:50;33.60;59.40
21246;DHT22;10781;50.928;4.440;2023-07-02T13:08:16;32.60;61.30
21246;DHT22;10781;50.928;4.440;2023-07-02T13:10:42;33.50;60.20
21246;DHT22;10781;50.928;4.440;2023-07-02T13:13:08;33.90;60.40
21246;DHT22;10781;50.928;4.440;2023-07-02T13:15:33;33.90;57.60
21246;DHT22;10781;50.928;4.440;2023-07-02T13:18:01;34.20;59.40
21246;DHT22;10781;50.928;4.440;2023-07-02T13:20:26;34.50;57.20
21246;DHT22;10781;50.928;4.440;2023-07-02T13:22:52;34.40;56.60
21246;DHT22;10781;50.928;4.440;2023-07-02T13:25:18;33.40;56.50
21246;DHT22;10781;50.928;4.440;2023-07-02T13:27:44;32.80;58.10
21246;DHT22;10781;50.928;4.440;2023-07-02T13:30:09;31.60;58.40
21246;DHT22;10781;50.928;4.440;2023-07-02T13:32:35;31.90;60.50
21246;DHT22;10781;50.928;4.440;2023-07-02T13:35:01;32.50;58.50
21246;DHT22;10781;50.928;4.440;2023-07-02T13:37:27;33.60;58.00
21246;DHT22;10781;50.928;4.440;2023-07-02T13:39:52;34.20;57.30
21246;DHT22;10781;50.928;4.440;2023-07-02T13:42:18;34.20;57.00
21246;DHT22;10781;50.928;4.440;2023-07-02T13:44:44;33.00;56.00
21246;DHT22;10781;50.928;4.440;2023-07-02T13:47:10;32.60;57.50
21246;DHT22;10781;50.928;4.440;2023-07-02T13:49:36;31.40;57.50
21246;DHT22;10781;50.928;4.440;2023-07-02T13:52:02;30.10;62.10
21246;DHT22;10781;50.928;4.440;2023-07-02T13:54:28;29.90;62.80
21246;DHT22;10781;50.928;4.440;2023-07-02T13:56:55;29.50;63.10
21246;DHT22;10781;50.928;4.440;2023-07-02T13:59:21;29.10;64.70
21246;DHT22;10781;50.928;4.440;2023-07-02T14:01:47;29.20;63.60
21246;DHT22;10781;50.928;4.440;2023-07-02T14:04:14;30.00;65.30
21246;DHT22;10781;50.928;4.440;2023-07-02T14:06:40;30.00;63.70
21246;DHT22;10781;50.928;4.440;2023-07-02T14:09:06;31.20;63.40
21246;DHT22;10781;50.928;4.440;2023-07-02T14:11:34;32.40;61.80
21246;DHT22;10781;50.928;4.440;2023-07-02T14:14:00;33.10;59.00
21246;DHT22;10781;50.928;4.440;2023-07-02T14:16:26;32.80;58.50
21246;DHT22;10781;50.928;4.440;2023-07-02T14:18:52;32.20;57.60
21246;DHT22;10781;50.928;4.440;2023-07-02T14:21:17;31.10;59.10
21246;DHT22;10781;50.928;4.440;2023-07-02T14:23:44;30.90;60.00
21246;DHT22;10781;50.928;4.440;2023-07-02T14:26:10;31.60;58.80
21246;DHT22;10781;50.928;4.440;2023-07-02T14:28:36;31.00;57.90
21246;DHT22;10781;50.928;4.440;2023-07-02T14:31:03;30.90;57.70
21246;DHT22;10781;50.928;4.440;2023-07-02T14:33:31;31.50;59.00
21246;DHT22;10781;50.928;4.440;2023-07-02T14:35:58;30.90;57.50
21246;DHT22;10781;50.928;4.440;2023-07-02T14:38:24;30.50;58.90
21246;DHT22;10781;50.928;4.440;2023-07-02T14:40:50;30.10;59.70
21246;DHT22;10781;50.928;4.440;2023-07-02T14:43:16;31.30;59.90
21246;DHT22;10781;50.928;4.440;2023-07-02T14:45:48;31.80;58.40
21246;DHT22;10781;50.928;4.440;2023-07-02T14:48:14;32.30;57.20
21246;DHT22;10781;50.928;4.440;2023-07-02T14:50:51;31.90;57.30
21246;DHT22;10781;50.928;4.440;2023-07-02T14:53:18;31.40;56.40
21246;DHT22;10781;50.928;4.440;2023-07-02T14:55:44;30.40;57.60
21246;DHT22;10781;50.928;4.440;2023-07-02T14:58:15;29.60;59.20
21246;DHT22;10781;50.928;4.440;2023-07-02T15:00:46;29.60;62.00
21246;DHT22;10781;50.928;4.440;2023-07-02T15:03:12;29.70;60.40
21246;DHT22;10781;50.928;4.440;2023-07-02T15:05:38;30.20;59.10
21246;DHT22;10781;50.928;4.440;2023-07-02T15:08:05;29.80;58.90
21246;DHT22;10781;50.928;4.440;2023-07-02T15:10:31;29.00;59.70
21246;DHT22;10781;50.928;4.440;2023-07-02T15:12:57;28.20;59.50
21246;DHT22;10781;50.928;4.440;2023-07-02T15:15:26;27.50;61.30
21246;DHT22;10781;50.928;4.440;2023-07-02T15:17:51;27.60;61.40
21246;DHT22;10781;50.928;4.440;2023-07-02T15:20:17;28.10;61.60
21246;DHT22;10781;50.928;4.440;2023-07-02T15:22:43;27.80;62.40
21246;DHT22;10781;50.928;4.440;2023-07-02T15:25:08;27.70;62.20
21246;DHT22;10781;50.928;4.440;2023-07-02T15:27:34;27.20;62.20
21246;DHT22;10781;50.928;4.440;2023-07-02T15:30:00;26.80;62.90
21246;DHT22;10781;50.928;4.440;2023-07-02T15:32:25;27.30;62.90
21246;DHT22;10781;50.928;4.440;2023-07-02T15:34:51;28.00;62.50